Paragon — 3EHL6 — position and weather

sailwx.info

Track history (hours):
 
Tides and Currents Weather Stations Pressure Air Temp Water Temp Dewpoint Dewpoint Depression Visibility Wind Speed Wind Dir Waves Ship Positions

Paragon

Last reported at 2017-Nov-19 06:56 UTC. Time now 2017-Dec-17 08:22 UTC.
Position S 23°58' W 046°18'.
Warning: this ship's position is 28 days out of date.

Length 177 m; draft 9.6 m.

Type: Cargo ship. MMSI: 351790000.

Date/timePositionNaut miles runAvg speedWind from/ knotsBaromVisibWave heightAir tempDewpointWater temp
2017-Nov-19 06:56S 23°58' W 046°18'0 0.0
2017-Nov-19 06:08S 23°58' W 046°18'0 0.0
2017-Nov-19 01:53S 23°58' W 046°18'0 0.0
2017-Nov-17 16:57S 23°58' W 046°18'1 2.9
2017-Nov-17 16:30S 23°59' W 046°18'4 7.2
2017-Nov-17 16:00S 24°01' W 046°21'5 9.2
2017-Nov-17 15:30S 24°06' W 046°22'4 7.3
2017-Nov-17 15:00S 24°09' W 046°24'3 6.1
2017-Nov-17 14:30S 24°12' W 046°24'2 4.2
2017-Nov-17 14:00S 24°14' W 046°23'1 2.8
2017-Nov-17 13:30S 24°15' W 046°22'3 5.3
2017-Nov-17 13:00S 24°15' W 046°19'5 9.4
2017-Nov-17 12:30S 24°15' W 046°14'510.3
2017-Nov-17 12:00S 24°15' W 046°08'510.6
2017-Nov-17 11:30S 24°15' W 046°03'  
Track history (hours):
 
Tides and Currents Weather Stations Pressure Air Temp Water Temp Dewpoint Dewpoint Depression Visibility Wind Speed Wind Dir Waves Ship Positions

Paragon

Last reported at 2017-Nov-19 06:56 UTC. Time now 2017-Dec-17 08:22 UTC.
Position S 23°58' W 046°18'.
Warning: this ship's position is 28 days out of date.

Length 177 m; draft 9.6 m.

Type: Cargo ship. MMSI: 351790000.

Date/timePositionNaut miles runAvg speedWind from/ knotsBaromVisibWave heightAir tempDewpointWater temp
2017-Nov-19 06:56S 23°58' W 046°18'0 0.0
2017-Nov-19 06:08S 23°58' W 046°18'0 0.0
2017-Nov-19 01:53S 23°58' W 046°18'0 0.0
2017-Nov-17 16:57S 23°58' W 046°18'1 2.9
2017-Nov-17 16:30S 23°59' W 046°18'4 7.2
2017-Nov-17 16:00S 24°01' W 046°21'5 9.2
2017-Nov-17 15:30S 24°06' W 046°22'4 7.3
2017-Nov-17 15:00S 24°09' W 046°24'3 6.1
2017-Nov-17 14:30S 24°12' W 046°24'2 4.2
2017-Nov-17 14:00S 24°14' W 046°23'1 2.8
2017-Nov-17 13:30S 24°15' W 046°22'3 5.3
2017-Nov-17 13:00S 24°15' W 046°19'5 9.4
2017-Nov-17 12:30S 24°15' W 046°14'510.3
2017-Nov-17 12:00S 24°15' W 046°08'510.6
2017-Nov-17 11:30S 24°15' W 046°03'  

Dump ship's entire track history